Time;durP1;ratioP1;P1;durP2;ratioP2;P2;SDS_P1;SDS_P2;PMS_P1;PMS_P2;Temp;Humidity;BMP_temperature;BMP_pressure;BME280_temperature;BME280_humidity;BME280_pressure;Samples;Min_cycle;Max_cycle;Signal;HPM_P1;HPM_P2
2024/01/26 00:00:29;;;;;;;4.37;3.13;;;;;;;17.40;53.47;102091.59;10409423;28;20033;-56
2024/01/26 00:05:30;;;;;;;5.20;2.83;;;;;;;17.40;53.58;102083.53;10410151;28;20290;-56
2024/01/26 00:10:30;;;;;;;4.80;3.25;;;;;;;17.36;54.14;102088.63;10421152;28;20280;-57
2024/01/26 00:15:30;;;;;;;4.17;2.80;;;;;;;17.36;54.23;102083.25;10409494;28;20419;-57
2024/01/26 00:20:31;;;;;;;5.28;2.70;;;;;;;17.40;53.32;102080.84;10408916;28;20350;-57
2024/01/26 00:25:31;;;;;;;4.30;2.70;;;;;;;17.41;54.38;102072.59;10413604;28;20021;-57
2024/01/26 00:30:31;;;;;;;3.93;2.80;;;;;;;17.40;54.24;102070.94;10451904;28;20267;-56
2024/01/26 00:35:32;;;;;;;3.45;2.85;;;;;;;17.41;55.04;102059.19;10418057;28;20276;-57
2024/01/26 00:40:32;;;;;;;4.43;2.80;;;;;;;17.40;53.92;102056.72;10407396;28;20029;-57
2024/01/26 00:45:33;;;;;;;3.97;2.67;;;;;;;17.41;54.70;102053.00;10411586;28;20513;-56
2024/01/26 00:50:33;;;;;;;5.53;3.50;;;;;;;17.38;53.82;102046.25;10408373;28;20264;-57
2024/01/26 00:55:33;;;;;;;3.60;2.83;;;;;;;17.38;54.09;102048.13;10408962;28;20116;-57
2024/01/26 01:00:34;;;;;;;4.23;2.97;;;;;;;17.37;53.84;102050.00;10408084;28;20387;-56
2024/01/26 01:05:34;;;;;;;3.47;2.30;;;;;;;17.38;53.87;102051.63;10408353;28;20338;-57
2024/01/26 01:10:36;;;;;;;4.38;2.85;;;;;;;17.37;54.46;102052.69;10419847;28;20351;-57
2024/01/26 01:15:39;;;;;;;4.05;2.67;;;;;;;17.39;53.62;102050.56;10409963;28;20048;-57
2024/01/26 01:20:40;;;;;;;3.78;2.60;;;;;;;17.41;53.58;102053.00;10407797;28;20036;-57
2024/01/26 01:25:40;;;;;;;3.67;2.60;;;;;;;17.40;54.99;102041.44;10408003;28;20039;-57
2024/01/26 01:30:40;;;;;;;3.70;2.97;;;;;;;17.38;54.29;102034.72;10425694;28;20290;-57
2024/01/26 01:35:41;;;;;;;4.70;2.50;;;;;;;17.39;53.37;102031.78;10415377;28;20108;-57
2024/01/26 01:40:43;;;;;;;4.50;2.40;;;;;;;17.40;54.28;102030.72;10406988;28;20366;-57
2024/01/26 01:45:43;;;;;;;3.45;2.88;;;;;;;17.38;54.97;102021.31;10406352;28;20029;-57
2024/01/26 01:50:44;;;;;;;4.03;3.10;;;;;;;17.37;53.66;102009.00;10412435;28;20013;-57
2024/01/26 01:55:44;;;;;;;4.35;2.53;;;;;;;17.41;53.59;102002.06;10414682;28;20286;-57
2024/01/26 02:00:46;;;;;;;3.33;2.40;;;;;;;17.41;54.02;101996.72;10413989;28;20021;-57
2024/01/26 02:05:48;;;;;;;2.65;1.90;;;;;;;17.37;54.27;102003.63;10414306;28;20024;-56
2024/01/26 02:10:48;;;;;;;2.65;2.13;;;;;;;17.38;54.40;101989.16;10433993;28;20052;-57
2024/01/26 02:15:48;;;;;;;3.77;2.37;;;;;;;17.36;54.16;101970.66;10455212;28;20029;-56
2024/01/26 02:20:48;;;;;;;3.07;2.43;;;;;;;17.37;54.78;101969.56;10454585;28;20600;-57
2024/01/26 02:25:49;;;;;;;5.10;2.70;;;;;;;17.40;54.68;101961.00;10418568;28;20272;-57
2024/01/26 02:30:49;;;;;;;4.10;3.08;;;;;;;17.37;53.12;101953.50;10433612;28;20637;-57
2024/01/26 02:35:49;;;;;;;3.30;2.57;;;;;;;17.39;53.95;101946.00;10417089;28;20029;-57
2024/01/26 02:40:50;;;;;;;2.87;2.33;;;;;;;17.41;53.65;101938.53;10412490;28;20283;-56
2024/01/26 02:45:50;;;;;;;3.88;2.70;;;;;;;17.39;54.27;101932.59;10412884;28;20321;-56
2024/01/26 02:50:50;;;;;;;3.17;2.03;;;;;;;17.40;53.49;101934.19;10420400;28;20017;-57
2024/01/26 02:55:51;;;;;;;5.05;2.75;;;;;;;17.38;53.59;101933.66;10412486;28;20597;-57
2024/01/26 03:00:51;;;;;;;2.97;2.37;;;;;;;17.39;53.70;101929.91;10411257;28;20079;-56
2024/01/26 03:05:51;;;;;;;4.27;2.70;;;;;;;17.41;53.58;101911.72;10411972;28;20290;-57
2024/01/26 03:10:52;;;;;;;2.45;2.00;;;;;;;17.39;54.40;101896.94;10423911;28;20349;-57
2024/01/26 03:15:52;;;;;;;4.68;2.83;;;;;;;17.42;53.89;101880.34;10411259;28;20025;-57
2024/01/26 03:20:52;;;;;;;5.10;2.40;;;;;;;17.41;53.58;101854.59;10411254;28;20032;-57
2024/01/26 03:25:53;;;;;;;3.27;2.50;;;;;;;17.42;54.13;101845.50;10410796;28;20021;-56
2024/01/26 03:30:53;;;;;;;2.50;1.80;;;;;;;17.41;54.24;101849.25;10431336;28;20765;-56
2024/01/26 03:35:53;;;;;;;2.50;1.93;;;;;;;17.44;53.74;101844.16;10415552;28;20029;-56
2024/01/26 03:40:54;;;;;;;2.83;2.20;;;;;;;17.41;53.38;101839.31;10410842;28;20291;-56
2024/01/26 03:45:54;;;;;;;3.00;1.92;;;;;;;17.37;54.12;101830.16;10410069;28;20280;-56
2024/01/26 03:50:54;;;;;;;2.60;1.80;;;;;;;17.40;53.38;101820.78;10410644;28;20025;-56
2024/01/26 03:55:55;;;;;;;2.73;1.73;;;;;;;17.38;52.73;101812.22;10411744;28;20284;-56
2024/01/26 04:00:55;;;;;;;2.63;2.00;;;;;;;17.39;52.86;101814.63;10417882;28;20288;-56
2024/01/26 04:05:56;;;;;;;3.22;1.70;;;;;;;17.42;52.99;101814.13;10409271;28;20287;-57
2024/01/26 04:10:56;;;;;;;2.53;1.40;;;;;;;17.40;53.85;101789.44;10430428;28;20559;-56
2024/01/26 04:15:56;;;;;;;3.20;2.37;;;;;;;17.37;54.11;101787.28;10449125;28;20277;-56
2024/01/26 04:20:56;;;;;;;2.77;1.87;;;;;;;17.38;53.15;101777.34;10449090;28;20029;-55
2024/01/26 04:25:58;;;;;;;2.97;1.60;;;;;;;17.38;54.62;101761.28;10450053;28;20762;-57
2024/01/26 04:30:58;;;;;;;2.67;1.70;;;;;;;17.42;52.93;101762.38;10461745;28;20266;-56
2024/01/26 04:35:58;;;;;;;3.10;1.93;;;;;;;17.42;53.22;101760.50;10411752;28;20033;-56
2024/01/26 04:40:59;;;;;;;2.23;1.33;;;;;;;17.40;54.05;101730.44;10408905;28;20629;-57
2024/01/26 04:45:59;;;;;;;1.73;1.27;;;;;;;17.38;53.49;101721.88;10408432;28;20276;-56
2024/01/26 04:50:59;;;;;;;2.97;1.50;;;;;;;17.35;54.10;101741.16;10408810;28;20654;-56
2024/01/26 04:56:01;;;;;;;2.08;1.42;;;;;;;17.34;53.13;101736.88;10408257;28;20282;-57
2024/01/26 05:01:01;;;;;;;2.72;1.70;;;;;;;17.38;53.89;101734.47;10408390;28;20029;-57
2024/01/26 05:06:02;;;;;;;2.57;1.50;;;;;;;17.39;52.89;101736.06;10425031;28;20026;-57
2024/01/26 05:11:02;;;;;;;2.75;1.48;;;;;;;17.39;53.29;101726.16;10430257;28;20831;-57
2024/01/26 05:16:02;;;;;;;2.13;1.48;;;;;;;17.40;52.86;101735.00;10449557;28;20025;-57
2024/01/26 05:21:03;;;;;;;1.92;1.35;;;;;;;17.41;52.63;101725.91;10439086;28;20074;-57
2024/01/26 05:26:03;;;;;;;2.07;1.37;;;;;;;17.42;53.39;101690.78;10431191;28;20102;-57
2024/01/26 05:31:03;;;;;;;2.17;1.50;;;;;;;17.42;53.68;101679.25;10449552;28;20281;-57
2024/01/26 05:36:04;;;;;;;2.73;1.30;;;;;;;17.41;52.99;101678.47;10416737;28;20021;-56
2024/01/26 05:41:05;;;;;;;2.83;1.50;;;;;;;17.36;54.00;101648.94;10415300;28;20292;-56
2024/01/26 05:46:06;;;;;;;2.38;1.23;;;;;;;17.32;53.09;101639.81;10416321;28;20025;-57
2024/01/26 05:51:06;;;;;;;1.67;1.30;;;;;;;17.35;53.40;101639.28;10414969;28;20030;-56
2024/01/26 05:56:06;;;;;;;2.17;1.43;;;;;;;17.36;54.04;101632.06;10414380;28;20504;-57
2024/01/26 06:01:07;;;;;;;2.47;1.52;;;;;;;17.35;53.69;101638.50;10414359;28;20287;-56
2024/01/26 06:06:07;;;;;;;2.13;1.80;;;;;;;17.47;54.81;101623.78;10416758;28;20025;-57
2024/01/26 06:11:09;;;;;;;4.75;2.35;;;;;;;17.62;53.37;101640.94;10431565;28;20291;-58
2024/01/26 06:16:14;;;;;;;7.78;2.75;;;;;;;17.58;55.30;101624.59;10430238;28;20162;-58
2024/01/26 06:21:14;;;;;;;5.00;2.30;;;;;;;17.63;55.35;101610.38;10427848;28;20057;-58
2024/01/26 06:26:14;;;;;;;11.77;2.53;;;;;;;17.66;55.20;101620.59;10413517;28;20108;-56
2024/01/26 06:31:14;;;;;;;10.90;2.60;;;;;;;17.62;54.70;101601.53;10439628;28;20354;-58
2024/01/26 06:36:15;;;;;;;7.97;2.60;;;;;;;17.57;55.63;101598.03;10412146;28;20954;-56
2024/01/26 06:41:16;;;;;;;13.52;3.45;;;;;;;17.51;56.51;101608.75;10412804;28;20298;-57
2024/01/26 06:46:19;;;;;;;8.60;3.00;;;;;;;17.52;56.29;101605.03;10420375;28;20024;-56
2024/01/26 06:51:19;;;;;;;5.15;2.08;;;;;;;17.43;55.34;101587.84;10442504;28;20283;-58
2024/01/26 06:56:19;;;;;;;4.97;2.58;;;;;;;17.39;55.91;101586.75;10425671;28;20033;-58
2024/01/26 07:01:20;;;;;;;7.43;2.83;;;;;;;17.32;55.97;101580.84;10417395;28;20029;-58
2024/01/26 07:06:20;;;;;;;4.43;2.50;;;;;;;17.28;55.46;101574.41;10411135;28;20284;-57
2024/01/26 07:11:22;;;;;;;6.50;3.17;;;;;;;17.28;56.54;101574.41;10423845;28;20038;-57
2024/01/26 07:16:22;;;;;;;8.35;2.50;;;;;;;17.25;55.31;101562.34;10407386;28;20272;-57
2024/01/26 07:21:23;;;;;;;10.63;2.53;;;;;;;17.23;55.75;101561.00;10407861;28;20026;-56
2024/01/26 07:26:23;;;;;;;4.75;1.90;;;;;;;17.19;56.11;101566.09;10407654;28;20048;-56
2024/01/26 07:31:23;;;;;;;6.07;2.23;;;;;;;17.21;54.94;101563.94;10432682;28;20182;-57
2024/01/26 07:36:24;;;;;;;4.30;2.38;;;;;;;17.23;55.98;101574.41;10407305;28;20279;-57
2024/01/26 07:41:24;;;;;;;7.00;1.83;;;;;;;17.23;56.15;101571.72;10407850;28;20022;-57
2024/01/26 07:46:24;;;;;;;7.57;3.23;;;;;;;17.22;55.63;101576.28;10405272;28;20362;-57
2024/01/26 07:51:25;;;;;;;5.38;1.55;;;;;;;17.28;54.78;101577.06;10404155;28;20639;-57
2024/01/26 07:56:25;;;;;;;6.25;2.15;;;;;;;17.32;54.16;101580.06;10405278;28;20477;-57
2024/01/26 08:01:25;;;;;;;4.17;1.80;;;;;;;17.30;55.00;101591.03;10406154;28;20370;-57
2024/01/26 08:06:25;;;;;;;5.00;1.67;;;;;;;17.28;55.05;101595.03;10427198;28;20283;-58
2024/01/26 08:11:26;;;;;;;3.50;1.90;;;;;;;17.29;55.63;101594.00;10445702;28;20314;-58
2024/01/26 08:16:26;;;;;;;5.53;1.60;;;;;;;17.25;54.45;101602.53;10442416;28;20291;-58
2024/01/26 08:21:27;;;;;;;7.23;1.83;;;;;;;17.29;54.67;101599.34;10408911;28;20379;-57
2024/01/26 08:26:28;;;;;;;3.33;1.40;;;;;;;17.31;54.40;101584.63;10408755;28;20600;-57
2024/01/26 08:31:29;;;;;;;4.53;1.98;;;;;;;17.33;55.67;101595.06;10435651;28;20021;-58
2024/01/26 08:36:29;;;;;;;2.72;1.50;;;;;;;17.30;55.63;101580.31;10408525;28;20365;-57
2024/01/26 08:41:30;;;;;;;2.27;1.20;;;;;;;17.25;55.40;101578.41;10415848;28;20037;-58
2024/01/26 08:46:30;;;;;;;3.57;1.50;;;;;;;17.27;54.61;101586.19;10425950;28;20275;-57
2024/01/26 08:51:30;;;;;;;3.38;1.48;;;;;;;17.28;54.37;101578.94;10425854;28;20280;-58
2024/01/26 08:56:31;;;;;;;3.17;2.03;;;;;;;17.28;54.45;101590.47;10434748;28;20040;-58
2024/01/26 09:01:31;;;;;;;2.93;1.33;;;;;;;17.34;54.23;101591.31;10416880;28;20294;-57
2024/01/26 09:06:32;;;;;;;3.33;1.40;;;;;;;17.38;53.87;101590.50;10415046;28;20290;-58
2024/01/26 09:11:32;;;;;;;5.07;1.67;;;;;;;17.37;54.59;101598.81;10428622;28;20291;-57
2024/01/26 09:16:33;;;;;;;4.00;1.50;;;;;;;17.32;55.29;101628.31;10415844;28;20366;-58
2024/01/26 09:21:33;;;;;;;3.27;1.40;;;;;;;17.34;55.12;101631.53;10416123;28;20307;-58
2024/01/26 09:26:33;;;;;;;4.93;1.43;;;;;;;17.34;54.79;101656.44;10415382;28;20641;-56
2024/01/26 09:31:34;;;;;;;4.90;1.48;;;;;;;17.33;54.51;101700.41;10440960;28;20272;-57
2024/01/26 09:36:34;;;;;;;1.60;0.97;;;;;;;17.31;54.33;101715.97;10407960;28;20057;-57
2024/01/26 09:41:34;;;;;;;5.23;1.20;;;;;;;17.30;54.95;101722.38;10421183;28;20291;-58
2024/01/26 09:46:34;;;;;;;2.63;0.97;;;;;;;17.34;53.81;101744.09;10422104;28;20292;-58
2024/01/26 09:51:35;;;;;;;2.65;1.02;;;;;;;17.34;55.42;101785.13;10407214;28;20275;-58
2024/01/26 09:56:37;;;;;;;5.10;1.17;;;;;;;17.30;54.94;101802.81;10414057;28;20044;-58
2024/01/26 10:01:41;;;;;;;2.08;0.90;;;;;;;17.29;55.06;101817.28;10423832;28;20025;-58
2024/01/26 10:06:41;;;;;;;2.35;0.93;;;;;;;17.26;54.60;101839.22;10452330;28;20064;-58
2024/01/26 10:11:42;;;;;;;2.35;0.95;;;;;;;17.28;54.83;101857.72;10417447;28;20437;-56
2024/01/26 10:16:42;;;;;;;2.30;0.93;;;;;;;17.30;54.10;101888.59;10413715;28;20453;-58
2024/01/26 10:21:42;;;;;;;2.70;1.17;;;;;;;17.33;54.16;101898.78;10448790;28;20296;-58
2024/01/26 10:26:43;;;;;;;4.13;1.30;;;;;;;17.34;53.47;101916.47;10453074;28;20941;-56
2024/01/26 10:31:45;;;;;;;4.53;1.35;;;;;;;17.34;54.13;101918.34;10466629;28;20273;-57
2024/01/26 10:36:47;;;;;;;5.03;1.45;;;;;;;17.28;55.17;101922.84;10451502;28;20024;-57
2024/01/26 10:41:52;;;;;;;5.47;1.10;;;;;;;17.29;55.38;101932.53;10453101;28;20059;-58
2024/01/26 10:46:53;;;;;;;4.32;1.13;;;;;;;17.30;55.80;101963.66;10452741;28;20029;-58
2024/01/26 10:51:55;;;;;;;9.32;1.48;;;;;;;17.32;55.63;101971.44;10451817;28;20026;-58
2024/01/26 10:56:55;;;;;;;5.28;1.20;;;;;;;17.32;55.52;101991.00;10452390;28;20400;-58
2024/01/26 11:01:55;;;;;;;12.03;2.17;;;;;;;17.34;55.82;102004.94;10450948;28;20025;-57
2024/01/26 11:06:56;;;;;;;9.65;1.67;;;;;;;17.30;56.33;102019.13;10449695;28;20689;-57
2024/01/26 11:11:57;;;;;;;6.38;1.85;;;;;;;17.29;55.71;102020.19;10421619;28;20146;-57
2024/01/26 11:17:19;;;;;;;7.07;1.23;;;;;;;17.32;54.15;102039.25;10423759;28;20136;-58
2024/01/26 11:22:19;;;;;;;7.40;1.88;;;;;;;17.33;55.86;102051.59;10449315;28;20049;-57
2024/01/26 11:27:20;;;;;;;9.27;1.83;;;;;;;17.22;56.12;102074.00;10452385;28;20559;-58
2024/01/26 11:32:22;;;;;;;7.22;2.00;;;;;;;17.18;56.14;102073.72;10454072;28;20272;-57
2024/01/26 11:37:26;;;;;;;9.85;2.20;;;;;;;17.17;56.42;102090.84;10413276;28;20021;-57
2024/01/26 11:42:27;;;;;;;15.95;2.40;;;;;;;17.15;55.55;102109.03;10409307;28;20021;-55
2024/01/26 11:47:27;;;;;;;16.23;2.78;;;;;;;17.22;54.68;102125.75;10447027;28;20060;-56
2024/01/26 11:52:28;;;;;;;8.40;1.80;;;;;;;17.22;55.03;102128.41;10450066;28;20535;-56
2024/01/26 11:57:29;;;;;;;6.47;1.30;;;;;;;17.12;55.64;102141.69;10450035;28;20314;-55
2024/01/26 12:02:30;;;;;;;7.38;2.38;;;;;;;17.12;55.30;102156.97;10426589;28;20291;-57
2024/01/26 12:07:30;;;;;;;5.30;2.37;;;;;;;17.09;55.81;102179.72;10450727;28;20029;-58
2024/01/26 12:12:31;;;;;;;5.33;1.70;;;;;;;17.07;55.51;102197.13;10413328;28;20295;-58
2024/01/26 12:17:31;;;;;;;6.68;2.03;;;;;;;17.05;55.35;102213.47;10421006;28;20272;-58
2024/01/26 12:22:32;;;;;;;4.27;1.70;;;;;;;17.04;55.66;102221.72;10407002;28;20116;-58
2024/01/26 12:27:34;;;;;;;9.80;1.73;;;;;;;17.00;54.06;102232.13;10407557;28;20306;-58
2024/01/26 12:32:36;;;;;;;6.05;1.33;;;;;;;16.99;54.17;102257.31;10432530;28;20063;-58
2024/01/26 12:37:37;;;;;;;5.80;1.20;;;;;;;16.96;54.32;102271.22;10408147;28;20021;-58
2024/01/26 12:42:38;;;;;;;6.88;1.40;;;;;;;16.92;54.79;102292.31;10407353;28;20038;-58
2024/01/26 12:47:38;;;;;;;5.13;1.40;;;;;;;16.91;53.55;102285.31;10407238;28;20121;-58
2024/01/26 12:52:39;;;;;;;6.63;1.43;;;;;;;16.95;52.91;102302.56;10407618;28;20358;-58
2024/01/26 12:57:40;;;;;;;2.95;1.30;;;;;;;16.96;53.47;102298.00;10406090;28;20284;-58
2024/01/26 13:02:40;;;;;;;4.45;1.50;;;;;;;16.98;53.03;102306.59;10407020;28;20029;-58
2024/01/26 13:07:40;;;;;;;3.93;1.37;;;;;;;17.03;52.56;102328.09;10414784;28;20029;-58
2024/01/26 13:12:41;;;;;;;4.90;1.30;;;;;;;17.05;52.28;102334.06;10411609;28;20322;-58
2024/01/26 13:17:42;;;;;;;4.57;1.25;;;;;;;17.01;54.67;102340.94;10407366;28;20280;-59
2024/01/26 13:22:42;;;;;;;9.32;1.80;;;;;;;17.20;51.93;102352.22;10421963;28;20491;-55
2024/01/26 13:27:43;;;;;;;7.70;1.75;;;;;;;17.19;51.84;102361.31;10434033;28;20033;-57
2024/01/26 13:32:46;;;;;;;4.38;1.77;;;;;;;17.15;53.44;102378.94;10434013;28;20064;-58
2024/01/26 13:37:50;;;;;;;11.52;1.77;;;;;;;17.21;51.45;102394.84;10426496;28;20033;-60
2024/01/26 13:42:50;;;;;;;7.07;1.70;;;;;;;17.23;52.70;102408.00;10448202;28;20029;-58
2024/01/26 13:47:51;;;;;;;4.72;1.20;;;;;;;17.31;52.15;102412.16;10455802;28;20038;-58
2024/01/26 13:52:52;;;;;;;5.47;1.83;;;;;;;17.32;51.40;102413.78;10455635;28;20021;-58
2024/01/26 13:57:52;;;;;;;5.40;1.63;;;;;;;17.31;51.18;102412.97;10454980;28;20025;-58
2024/01/26 14:02:52;;;;;;;5.55;1.50;;;;;;;17.28;52.03;102429.53;10443534;28;20771;-58
2024/01/26 14:07:53;;;;;;;5.50;1.60;;;;;;;17.28;52.60;102442.94;10423217;28;20388;-58
2024/01/26 14:12:53;;;;;;;3.72;1.33;;;;;;;17.31;50.76;102441.66;10445210;28;20327;-59
2024/01/26 14:17:54;;;;;;;3.42;1.35;;;;;;;17.33;51.00;102458.31;10448526;28;20107;-58
2024/01/26 14:22:54;;;;;;;5.47;1.35;;;;;;;17.49;55.57;102465.50;10454363;28;20021;-58
2024/01/26 14:27:54;;;;;;;6.40;1.70;;;;;;;17.50;53.44;102491.28;10454271;28;20082;-58
2024/01/26 14:32:55;;;;;;;2.67;1.07;;;;;;;17.47;54.77;102497.13;10453043;28;20079;-58
2024/01/26 14:37:55;;;;;;;2.50;1.00;;;;;;;17.43;52.69;102520.13;10412300;28;20291;-58
2024/01/26 14:42:56;;;;;;;7.85;1.13;;;;;;;17.36;53.06;102524.84;10412633;28;20693;-59
2024/01/26 14:47:56;;;;;;;4.27;1.00;;;;;;;17.36;53.84;102539.06;10413104;28;20104;-58
2024/01/26 14:52:56;;;;;;;8.30;1.17;;;;;;;17.31;53.10;102560.44;10410926;28;20299;-58
2024/01/26 14:57:57;;;;;;;5.93;1.30;;;;;;;17.29;52.93;102551.81;10411807;28;20036;-59
2024/01/26 15:02:58;;;;;;;7.05;1.45;;;;;;;17.31;53.15;102557.75;10430168;28;20658;-58
2024/01/26 15:07:59;;;;;;;5.70;1.92;;;;;;;17.30;53.29;102574.06;10414922;28;20427;-58
2024/01/26 15:13:00;;;;;;;6.20;1.38;;;;;;;17.35;52.15;102584.88;10436289;28;20033;-58
2024/01/26 15:18:00;;;;;;;8.90;1.40;;;;;;;17.34;52.83;102597.47;10449546;28;20068;-59
2024/01/26 15:23:01;;;;;;;4.43;1.38;;;;;;;17.34;53.06;102602.03;10437031;28;20158;-58
2024/01/26 15:28:01;;;;;;;17.20;2.63;;;;;;;17.28;53.92;102635.97;10451617;28;20033;-58
2024/01/26 15:33:02;;;;;;;18.90;3.97;;;;;;;17.32;52.71;102626.41;10417938;28;20268;-57
2024/01/26 15:38:02;;;;;;;17.98;3.38;;;;;;;17.30;54.38;102636.56;10409859;28;20271;-58
2024/01/26 15:43:02;;;;;;;17.73;3.78;;;;;;;17.28;52.60;102656.59;10409332;28;20026;-57
2024/01/26 15:48:03;;;;;;;28.05;5.60;;;;;;;17.33;53.11;102652.16;10409610;28;20029;-58
2024/01/26 15:53:04;;;;;;;46.25;8.35;;;;;;;17.33;53.07;102662.88;10414871;28;20024;-57
2024/01/26 15:58:04;;;;;;;81.38;11.45;;;;;;;17.30;54.79;102671.41;10410218;28;20033;-57
2024/01/26 16:03:04;;;;;;;34.03;8.00;;;;;;;17.29;53.90;102685.88;10411998;28;20111;-59
2024/01/26 16:08:05;;;;;;;46.42;8.32;;;;;;;17.24;54.26;102699.97;10442970;28;20342;-57
2024/01/26 16:13:05;;;;;;;45.92;9.38;;;;;;;17.30;53.49;102711.63;10420587;28;20044;-58
2024/01/26 16:18:06;;;;;;;41.88;7.22;;;;;;;17.28;53.02;102721.75;10433423;28;20021;-56
2024/01/26 16:23:07;;;;;;;30.98;9.60;;;;;;;17.39;53.79;102739.69;10407802;28;20469;-57
2024/01/26 16:28:07;;;;;;;29.92;7.15;;;;;;;17.50;51.99;102754.09;10407978;28;20040;-57
2024/01/26 16:33:11;;;;;;;32.50;5.70;;;;;;;17.59;52.19;102752.69;10433189;28;20033;-56
2024/01/26 16:38:12;;;;;;;23.30;5.97;;;;;;;17.77;52.72;102765.94;10419727;28;20014;-58
2024/01/26 16:43:14;;;;;;;25.02;5.63;;;;;;;17.80;53.29;102762.78;10440276;28;20404;-57
2024/01/26 16:48:14;;;;;;;24.63;6.03;;;;;;;17.80;54.37;102778.88;10449812;28;20035;-56
2024/01/26 16:53:14;;;;;;;20.27;5.37;;;;;;;17.86;51.49;102793.19;10448638;28;20017;-56
2024/01/26 16:58:14;;;;;;;21.03;6.40;;;;;;;17.82;57.78;102798.22;10446780;28;20403;-56
2024/01/26 17:03:15;;;;;;;25.47;6.23;;;;;;;17.71;54.34;102804.44;10438082;28;20133;-56
2024/01/26 17:08:15;;;;;;;25.20;6.28;;;;;;;17.86;56.13;102817.34;10417943;28;20348;-56
2024/01/26 17:13:15;;;;;;;15.13;5.53;;;;;;;17.93;55.55;102822.59;10418316;28;20037;-56
2024/01/26 17:18:16;;;;;;;25.08;5.40;;;;;;;17.92;55.87;102845.09;10406918;28;20751;-56
2024/01/26 17:23:16;;;;;;;28.08;6.35;;;;;;;17.95;56.44;102845.44;10413194;28;20033;-57
2024/01/26 17:28:16;;;;;;;37.88;10.93;;;;;;;17.84;55.21;102862.41;10412957;28;20033;-57
2024/01/26 17:33:17;;;;;;;21.30;6.47;;;;;;;17.83;55.06;102866.13;10437644;28;20025;-58
2024/01/26 17:38:17;;;;;;;28.50;6.60;;;;;;;17.86;53.89;102871.00;10412354;28;20294;-57
2024/01/26 17:43:17;;;;;;;46.28;9.35;;;;;;;17.73;54.50;102877.47;10411935;28;20307;-55
2024/01/26 17:48:18;;;;;;;30.10;6.47;;;;;;;17.62;53.95;102897.06;10413746;28;20108;-56
2024/01/26 17:53:18;;;;;;;20.88;5.68;;;;;;;17.55;55.04;102901.75;10420064;28;20299;-56
2024/01/26 17:58:19;;;;;;;27.47;5.93;;;;;;;17.46;53.96;102906.66;10446246;28;20468;-55
2024/01/26 18:03:19;;;;;;;26.13;6.10;;;;;;;17.41;53.36;102911.09;10455501;28;20291;-56
2024/01/26 18:08:20;;;;;;;20.30;4.30;;;;;;;17.36;53.90;102922.50;10455536;28;20656;-56
2024/01/26 18:13:20;;;;;;;23.33;6.20;;;;;;;17.31;54.67;102922.41;10413470;28;20292;-56
2024/01/26 18:18:20;;;;;;;17.30;6.53;;;;;;;17.25;54.73;102932.16;10414213;28;20429;-56
2024/01/26 18:23:21;;;;;;;15.73;3.50;;;;;;;17.31;54.56;102935.81;10423589;28;20295;-56
2024/01/26 18:28:21;;;;;;;14.60;4.57;;;;;;;17.32;54.16;102937.44;10431440;28;20028;-56
2024/01/26 18:33:22;;;;;;;19.10;4.93;;;;;;;17.37;52.82;102956.31;10431045;28;20025;-57
2024/01/26 18:38:23;;;;;;;20.35;4.65;;;;;;;17.37;54.54;102950.13;10429260;28;20276;-56
2024/01/26 18:43:23;;;;;;;10.90;4.15;;;;;;;17.33;53.89;102965.88;10428726;28;20028;-54
2024/01/26 18:48:24;;;;;;;13.97;4.50;;;;;;;17.30;53.11;102966.34;10426792;28;20047;-55
2024/01/26 18:53:24;;;;;;;10.57;3.77;;;;;;;17.31;53.00;102984.06;10430502;28;20639;-54
2024/01/26 18:58:24;;;;;;;11.93;3.93;;;;;;;17.31;53.00;102986.75;10426601;28;20346;-53
2024/01/26 19:03:26;;;;;;;11.45;3.67;;;;;;;17.32;52.61;102996.44;10430349;28;20363;-55
2024/01/26 19:08:27;;;;;;;12.10;3.90;;;;;;;17.35;53.86;102995.13;10414521;28;20033;-55
2024/01/26 19:13:27;;;;;;;11.50;2.80;;;;;;;17.33;53.27;103003.41;10426580;28;20427;-55
2024/01/26 19:18:28;;;;;;;17.40;3.70;;;;;;;17.31;53.09;103005.53;10440053;28;20029;-55
2024/01/26 19:23:28;;;;;;;12.53;2.90;;;;;;;17.33;52.26;103011.47;10430363;28;20380;-55
2024/01/26 19:28:28;;;;;;;9.63;2.57;;;;;;;17.36;52.82;103035.13;10432904;28;20757;-55
2024/01/26 19:33:29;;;;;;;9.07;2.90;;;;;;;17.33;52.92;103024.88;10429036;28;20276;-55
2024/01/26 19:38:31;;;;;;;12.90;4.17;;;;;;;17.31;52.58;103036.88;10428582;28;20279;-54
2024/01/26 19:43:31;;;;;;;8.38;3.15;;;;;;;17.34;51.76;103036.41;10428824;28;20359;-55
2024/01/26 19:48:32;;;;;;;11.25;2.88;;;;;;;17.34;53.03;103044.47;10427962;28;20191;-55
2024/01/26 19:53:33;;;;;;;13.70;3.60;;;;;;;17.32;52.88;103052.75;10430731;28;20029;-55
2024/01/26 19:58:35;;;;;;;6.13;2.17;;;;;;;17.34;52.04;103053.31;10427467;28;20025;-54
2024/01/26 20:03:43;;;;;;;8.73;2.67;;;;;;;17.34;52.03;103058.69;10428404;28;20473;-55
2024/01/26 20:08:43;;;;;;;10.43;3.70;;;;;;;17.33;52.72;103057.06;10429083;28;20450;-55
2024/01/26 20:13:44;;;;;;;8.70;2.80;;;;;;;17.35;52.04;103051.44;10430325;28;20113;-56
2024/01/26 20:18:45;;;;;;;8.17;2.77;;;;;;;17.35;52.24;103054.94;10412684;28;20770;-56
2024/01/26 20:23:45;;;;;;;10.43;2.83;;;;;;;17.37;51.84;103047.50;10409477;28;20306;-55
2024/01/26 20:28:45;;;;;;;6.57;3.00;;;;;;;17.37;52.82;103052.84;10408793;28;20036;-53
2024/01/26 20:33:46;;;;;;;4.50;2.23;;;;;;;17.36;51.97;103070.00;10424573;28;20278;-55
2024/01/26 20:38:49;;;;;;;8.37;3.53;;;;;;;17.35;51.62;103067.53;10448725;28;20982;-56
2024/01/26 20:43:49;;;;;;;6.95;2.90;;;;;;;17.32;53.22;103076.88;10441411;28;20298;-56
2024/01/26 20:48:49;;;;;;;7.07;2.70;;;;;;;17.32;52.15;103078.75;10449646;28;20017;-56
2024/01/26 20:53:50;;;;;;;7.97;2.45;;;;;;;17.31;52.00;103072.56;10453318;28;20283;-56
2024/01/26 20:58:50;;;;;;;6.28;2.08;;;;;;;17.29;51.67;103081.88;10457924;28;20029;-56
2024/01/26 21:03:50;;;;;;;5.80;1.90;;;;;;;17.29;52.20;103085.38;10429800;28;20025;-56
2024/01/26 21:08:51;;;;;;;7.20;1.83;;;;;;;17.30;52.38;103092.38;10429875;28;20040;-56
2024/01/26 21:13:51;;;;;;;7.88;2.22;;;;;;;17.32;51.22;103084.09;10416387;28;20287;-56
2024/01/26 21:18:52;;;;;;;8.73;2.13;;;;;;;17.32;51.98;103086.78;10416179;28;20075;-56
2024/01/26 21:23:55;;;;;;;8.90;2.47;;;;;;;17.29;52.39;103082.69;10416508;28;20279;-55
2024/01/26 21:28:56;;;;;;;3.90;2.30;;;;;;;17.29;51.65;103088.06;10415781;28;20033;-55
2024/01/26 21:33:57;;;;;;;7.85;2.30;;;;;;;17.27;51.17;103092.81;10417017;28;20420;-55
2024/01/26 21:38:58;;;;;;;13.38;3.67;;;;;;;17.29;51.52;103096.09;10415628;28;20039;-56
2024/01/26 21:44:00;;;;;;;8.55;2.05;;;;;;;17.30;51.52;103104.97;10415521;28;20499;-54
2024/01/26 21:49:00;;;;;;;6.38;2.30;;;;;;;17.30;51.79;103108.47;10415049;28;20377;-55
2024/01/26 21:54:01;;;;;;;8.07;2.83;;;;;;;17.31;51.25;103101.25;10413969;28;20032;-56
2024/01/26 21:59:01;;;;;;;4.13;2.08;;;;;;;17.30;52.51;103113.81;10414657;28;20033;-56
2024/01/26 22:04:01;;;;;;;4.07;2.00;;;;;;;17.28;52.75;103123.94;10414488;28;20066;-56
2024/01/26 22:09:06;;;;;;;5.03;1.65;;;;;;;17.29;51.05;103117.56;10426744;28;20323;-56
2024/01/26 22:14:06;;;;;;;6.03;2.53;;;;;;;17.33;52.08;103125.97;10413917;28;20496;-56
2024/01/26 22:19:06;;;;;;;7.40;2.37;;;;;;;17.31;52.43;103125.38;10413939;28;20029;-57
2024/01/26 22:24:08;;;;;;;5.95;2.22;;;;;;;17.32;51.21;103137.72;10413994;28;20041;-56
2024/01/26 22:29:08;;;;;;;5.97;2.10;;;;;;;17.31;50.57;103128.06;10413574;28;20037;-56
2024/01/26 22:34:08;;;;;;;8.33;2.03;;;;;;;17.32;51.77;103122.47;10440177;28;20055;-56
2024/01/26 22:39:09;;;;;;;6.07;2.58;;;;;;;17.34;51.96;103132.94;10413310;28;20280;-55
2024/01/26 22:44:09;;;;;;;3.80;1.70;;;;;;;17.45;51.70;103129.50;10413278;28;20025;-56
2024/01/26 22:49:09;;;;;;;6.60;1.97;;;;;;;17.50;50.62;103141.16;10412830;28;20357;-56
2024/01/26 22:54:10;;;;;;;7.38;2.25;;;;;;;17.50;51.05;103151.88;10413110;28;20322;-55